ENHV/HVG METAR and TAF weather

Enter ICAO airport designator
Station Type Date Time Source
ENHV METAR 2020/09/23 17:50 UTC NOAA

ENHV 231750Z 18020G35KT 130V250 9999 -DZ SCT030 BKN049 08/04 Q0987


Station Type Date Time Source
ENHV Decoded METAR 2020/09/23 17:50 UTC NOAA

Honningsvag / Valan, Norway (ENHV) 71-01N 025-59E 14M
Sep 23, 2020 - 01:50 PM EDT / 2020.09.23 1750 UTC
Wind: from the S (180 degrees) at 23 MPH (20 KT) gusting to 40 MPH (35 KT) (direction variable):0
Visibility: greater than 7 mile(s):0
Sky conditions: mostly cloudy
Weather: light drizzle
Temperature: 46 F (8 C)
Dew Point: 39 F (4 C)
Relative Humidity: 75%
Pressure (altimeter): 29.15 in. Hg (0987 hPa)
ob: ENHV 231750Z 18020G35KT 130V250 9999 -DZ SCT030 BKN049 08/04 Q0987
cycle: 18

Station Type Date Time Source
ENHV TAF UTC NOAA

Error!

Example: see airport list